createdAt,value
2022-08-08T00:02:03.446Z,5.83
2022-08-08T00:04:00.562Z,5.90
2022-08-08T00:06:06.516Z,6.70
2022-08-08T00:08:12.405Z,6.67
2022-08-08T00:10:16.855Z,6.03
2022-08-08T00:12:23.899Z,5.93
2022-08-08T00:14:47.996Z,6.00
2022-08-08T00:16:56.975Z,5.57
2022-08-08T00:19:04.668Z,5.47
2022-08-08T00:21:07.690Z,6.00
2022-08-08T00:23:14.677Z,5.73
2022-08-08T00:25:21.468Z,6.37
2022-08-08T00:27:34.720Z,5.83
2022-08-08T00:29:45.963Z,6.20
2022-08-08T00:32:28.157Z,6.40
2022-08-08T00:34:39.408Z,5.93
2022-08-08T00:36:54.943Z,6.00
2022-08-08T00:40:25.111Z,6.30
2022-08-08T00:42:09.180Z,6.17
2022-08-08T00:44:47.003Z,7.00
2022-08-08T00:47:36.925Z,5.67
2022-08-08T00:50:18.139Z,5.00
2022-08-08T00:52:40.456Z,5.97
2022-08-08T00:55:09.773Z,6.83
2022-08-08T00:57:44.967Z,5.57
2022-08-08T01:00:11.360Z,5.70
2022-08-08T01:03:16.119Z,5.60
2022-08-08T01:05:41.856Z,5.20
2022-08-08T01:08:10.575Z,5.77
2022-08-08T01:11:01.924Z,5.77
2022-08-08T01:13:43.768Z,5.80
2022-08-08T01:16:01.749Z,6.27
2022-08-08T01:18:52.473Z,5.40
2022-08-08T01:21:15.703Z,5.90
2022-08-08T01:24:16.515Z,6.10
2022-08-08T01:26:53.041Z,6.57
2022-08-08T01:29:35.584Z,5.77
2022-08-08T01:32:28.103Z,4.33
2022-08-08T01:35:29.686Z,4.15
2022-08-08T01:38:04.088Z,5.37
2022-08-08T01:40:15.721Z,5.13
2022-08-08T01:42:35.828Z,6.03
2022-08-08T01:44:54.814Z,5.70
2022-08-08T01:48:07.187Z,6.20
2022-08-08T01:49:38.681Z,6.37
2022-08-08T01:52:51.780Z,6.60
2022-08-08T01:55:26.313Z,6.00
2022-08-08T01:57:05.132Z,6.57
2022-08-08T01:59:14.616Z,6.27
2022-08-08T02:01:22.479Z,5.60
2022-08-08T02:03:50.692Z,7.17
2022-08-08T02:05:59.386Z,6.77
2022-08-08T02:08:09.463Z,6.37
2022-08-08T02:10:30.110Z,6.40
2022-08-08T02:12:48.265Z,6.90
2022-08-08T02:14:58.520Z,6.40
2022-08-08T02:17:04.314Z,6.70
2022-08-08T02:19:41.586Z,5.10
2022-08-08T02:22:02.840Z,6.20
2022-08-08T02:24:14.759Z,5.60
2022-08-08T02:26:25.772Z,5.03
2022-08-08T02:28:37.493Z,5.00
2022-08-08T02:30:50.140Z,5.37
2022-08-08T02:33:11.073Z,4.87
2022-08-08T02:36:02.784Z,6.27
2022-08-08T02:38:29.115Z,6.07
2022-08-08T02:40:39.169Z,7.00
2022-08-08T02:44:42.531Z,6.77
2022-08-08T02:46:05.741Z,6.33
2022-08-08T02:48:36.998Z,6.60
2022-08-08T02:51:11.893Z,7.50
2022-08-08T02:53:24.785Z,6.67
2022-08-08T02:56:08.641Z,7.10
2022-08-08T02:58:51.821Z,7.40
2022-08-08T03:01:16.577Z,6.23
2022-08-08T03:05:04.668Z,7.73
2022-08-08T03:06:56.982Z,6.67
2022-08-08T03:09:36.288Z,6.70
2022-08-08T03:12:36.059Z,7.00
2022-08-08T03:15:59.071Z,7.87
2022-08-08T03:17:20.359Z,6.40
2022-08-08T03:19:51.568Z,7.30
2022-08-08T03:21:59.743Z,5.90
2022-08-08T03:24:04.160Z,5.90
2022-08-08T03:26:06.896Z,5.50
2022-08-08T03:28:13.845Z,5.50
2022-08-08T03:30:21.906Z,6.70
2022-08-08T03:32:47.310Z,7.00
2022-08-08T03:34:56.336Z,6.80
2022-08-08T03:36:59.048Z,6.90
2022-08-08T03:39:14.938Z,7.33
2022-08-08T03:42:13.060Z,7.80
2022-08-08T03:43:42.746Z,7.30
2022-08-08T03:46:06.289Z,6.30
2022-08-08T03:48:10.139Z,5.30
2022-08-08T03:50:24.865Z,6.60
2022-08-08T03:52:30.142Z,20.93
2022-08-08T03:54:51.930Z,9.87
2022-08-08T03:56:57.613Z,7.53
2022-08-08T03:59:00.365Z,8.20
2022-08-08T04:01:23.708Z,6.90
2022-08-08T04:03:59.107Z,8.07
2022-08-08T04:05:57.213Z,7.60
2022-08-08T04:08:06.851Z,6.93
2022-08-08T04:10:10.469Z,7.10
2022-08-08T04:12:15.923Z,7.63
2022-08-08T04:14:34.662Z,7.47
2022-08-08T04:16:41.114Z,7.00
2022-08-08T04:18:44.853Z,8.50
2022-08-08T04:20:51.527Z,8.70
2022-08-08T04:22:54.345Z,7.23
2022-08-08T04:24:59.940Z,7.53
2022-08-08T04:27:07.384Z,7.47
2022-08-08T04:29:14.985Z,7.93
2022-08-08T04:31:30.923Z,7.27
2022-08-08T04:33:42.264Z,8.50
2022-08-08T04:35:50.693Z,9.27
2022-08-08T04:37:54.399Z,8.67
2022-08-08T04:40:05.418Z,7.60
2022-08-08T04:42:11.317Z,7.63
2022-08-08T04:44:19.860Z,8.10
2022-08-08T04:46:25.018Z,9.00
2022-08-08T04:48:27.872Z,9.20
2022-08-08T04:50:37.756Z,8.80
2022-08-08T04:52:41.743Z,8.50
2022-08-08T04:54:51.401Z,8.97
2022-08-08T04:56:54.321Z,8.60
2022-08-08T04:58:57.052Z,7.93
2022-08-08T05:01:08.942Z,8.33
2022-08-08T05:03:13.899Z,8.63
2022-08-08T05:05:44.600Z,8.50
2022-08-08T05:07:45.015Z,8.93
2022-08-08T05:09:48.113Z,10.10
2022-08-08T05:11:56.396Z,9.20
2022-08-08T05:14:01.375Z,9.53
2022-08-08T05:16:49.259Z,8.73
2022-08-08T05:18:29.491Z,8.90
2022-08-08T05:20:32.220Z,9.13
2022-08-08T05:22:36.741Z,9.33
2022-08-08T05:24:40.124Z,9.20
2022-08-08T05:26:46.194Z,9.87
2022-08-08T05:28:57.365Z,9.10
2022-08-08T05:32:02.449Z,9.43
2022-08-08T05:33:44.215Z,11.10
2022-08-08T05:35:54.039Z,10.13
2022-08-08T05:38:00.242Z,10.00
2022-08-08T05:40:05.498Z,9.17
2022-08-08T05:42:08.530Z,10.53
2022-08-08T05:44:13.203Z,10.57
2022-08-08T05:46:18.514Z,9.67
2022-08-08T05:48:28.253Z,10.00
2022-08-08T05:50:33.901Z,10.10
2022-08-08T05:52:37.261Z,9.70
2022-08-08T05:54:50.150Z,10.40
2022-08-08T05:56:55.492Z,9.60
2022-08-08T05:59:03.843Z,9.30
2022-08-08T06:01:06.822Z,10.17
2022-08-08T06:03:23.677Z,10.10
2022-08-08T06:05:35.218Z,9.40
2022-08-08T06:07:40.184Z,9.80
2022-08-08T06:09:59.683Z,9.50
2022-08-08T06:12:04.971Z,8.97
2022-08-08T06:14:07.691Z,9.27
2022-08-08T06:16:15.852Z,9.20
2022-08-08T06:18:20.736Z,9.13
2022-08-08T06:20:27.798Z,10.10
2022-08-08T06:22:33.758Z,10.07
2022-08-08T06:24:40.081Z,9.40
2022-08-08T06:26:58.136Z,9.40
2022-08-08T06:29:26.467Z,8.60
2022-08-08T06:31:32.194Z,7.60
2022-08-08T06:34:26.126Z,8.40
2022-08-08T06:36:20.845Z,8.30
2022-08-08T06:38:27.415Z,8.73
2022-08-08T06:40:32.024Z,8.47
2022-08-08T06:42:36.989Z,8.90
2022-08-08T06:44:42.434Z,9.40
2022-08-08T06:46:45.830Z,8.43
2022-08-08T06:48:53.966Z,8.37
2022-08-08T06:50:58.327Z,7.90
2022-08-08T06:53:01.620Z,8.90
2022-08-08T06:55:17.617Z,8.60
2022-08-08T06:57:20.334Z,7.83
2022-08-08T06:59:23.064Z,6.80
2022-08-08T07:02:18.676Z,8.00
2022-08-08T07:04:38.810Z,8.30
2022-08-08T07:06:17.815Z,8.07
2022-08-08T07:08:22.049Z,7.63
2022-08-08T07:10:26.221Z,7.33
2022-08-08T07:12:32.163Z,8.23
2022-08-08T07:14:39.950Z,7.23
2022-08-08T07:16:51.060Z,6.63
2022-08-08T07:19:06.446Z,7.37
2022-08-08T07:21:19.331Z,7.50
2022-08-08T07:23:24.263Z,7.13
2022-08-08T07:25:29.354Z,6.77
2022-08-08T07:28:00.558Z,6.90
2022-08-08T07:30:08.417Z,6.70
2022-08-08T07:32:17.298Z,6.80
2022-08-08T07:34:31.857Z,6.07
2022-08-08T07:36:35.022Z,6.50
2022-08-08T07:38:38.023Z,6.43
2022-08-08T07:40:40.779Z,6.20
2022-08-08T07:42:45.976Z,5.70
2022-08-08T07:44:48.844Z,6.50
2022-08-08T07:46:54.209Z,6.40
2022-08-08T07:48:56.946Z,6.33
2022-08-08T07:51:02.603Z,6.30
2022-08-08T07:53:23.981Z,6.67
2022-08-08T07:55:39.578Z,5.87
2022-08-08T07:57:45.018Z,6.43
2022-08-08T07:59:58.107Z,5.40
2022-08-08T08:02:37.093Z,6.07
2022-08-08T08:04:29.031Z,4.93
2022-08-08T08:06:36.889Z,6.33
2022-08-08T08:08:52.340Z,6.47
2022-08-08T08:10:57.665Z,6.03
2022-08-08T08:13:20.485Z,6.17
2022-08-08T08:15:32.158Z,6.33
2022-08-08T08:17:47.938Z,5.60
2022-08-08T08:19:55.809Z,5.30
2022-08-08T08:22:02.443Z,5.23
2022-08-08T08:24:10.826Z,5.90
2022-08-08T08:26:18.077Z,5.30
2022-08-08T08:28:30.594Z,5.50
2022-08-08T08:30:35.344Z,5.93
2022-08-08T08:32:41.193Z,5.77
2022-08-08T08:34:54.315Z,5.40
2022-08-08T08:36:57.129Z,5.03
2022-08-08T08:39:02.330Z,5.43
2022-08-08T08:41:16.762Z,5.20
2022-08-08T08:43:20.635Z,4.70
2022-08-08T08:45:29.991Z,5.50
2022-08-08T08:47:43.899Z,5.47
2022-08-08T08:49:47.736Z,5.53
2022-08-08T08:51:51.413Z,4.80
2022-08-08T08:54:00.031Z,5.00
2022-08-08T08:56:05.562Z,4.50
2022-08-08T08:58:09.243Z,5.30
2022-08-08T09:00:16.982Z,4.90
2022-08-08T09:02:24.130Z,4.80
2022-08-08T09:04:31.727Z,5.10
2022-08-08T09:06:50.398Z,4.80
2022-08-08T09:09:00.705Z,4.57
2022-08-08T09:11:04.757Z,4.90
2022-08-08T09:13:07.703Z,4.33
2022-08-08T09:15:11.814Z,4.80
2022-08-08T09:17:18.907Z,4.83
2022-08-08T09:21:53.637Z,4.50
2022-08-08T09:21:59.851Z,4.07
2022-08-08T09:24:08.298Z,4.87
2022-08-08T09:26:21.433Z,4.40
2022-08-08T09:28:35.583Z,5.00
2022-08-08T09:30:41.085Z,4.60
2022-08-08T09:33:12.902Z,5.20
2022-08-08T09:35:09.652Z,4.63
2022-08-08T09:37:57.336Z,4.23
2022-08-08T09:39:43.910Z,4.50
2022-08-08T09:42:20.316Z,4.77
2022-08-08T09:44:34.055Z,4.63
2022-08-08T09:46:38.726Z,4.05
2022-08-08T09:48:49.952Z,4.57
2022-08-08T09:50:56.192Z,4.43
2022-08-08T09:53:02.243Z,4.63
2022-08-08T09:55:17.524Z,4.50
2022-08-08T09:57:46.254Z,4.97
2022-08-08T10:00:21.073Z,4.40
2022-08-08T10:02:19.669Z,4.50
2022-08-08T10:04:38.273Z,4.30
2022-08-08T10:06:45.182Z,4.60
2022-08-08T10:08:55.496Z,4.50
2022-08-08T10:11:00.016Z,5.07
2022-08-08T10:13:15.200Z,4.30
2022-08-08T10:15:18.840Z,4.20
2022-08-08T10:17:56.854Z,4.30
2022-08-08T10:19:57.917Z,4.23
2022-08-08T10:22:01.243Z,4.80
2022-08-08T10:24:12.248Z,4.20
2022-08-08T10:26:57.394Z,4.23
2022-08-08T10:29:03.625Z,4.47
2022-08-08T10:31:46.666Z,6.40
2022-08-08T10:34:19.424Z,4.60
2022-08-08T10:36:22.310Z,3.97
2022-08-08T10:38:25.624Z,4.30
2022-08-08T10:40:32.552Z,4.40
2022-08-08T10:42:37.337Z,4.70
2022-08-08T10:44:43.014Z,4.77
2022-08-08T10:46:46.279Z,4.07
2022-08-08T10:48:57.559Z,3.93
2022-08-08T10:51:01.520Z,4.00
2022-08-08T10:53:07.591Z,4.83
2022-08-08T10:55:41.218Z,4.20
2022-08-08T10:57:45.221Z,4.13
2022-08-08T10:59:58.325Z,4.33
2022-08-08T11:02:02.699Z,3.70
2022-08-08T11:04:10.784Z,4.10
2022-08-08T11:06:16.561Z,3.77
2022-08-08T11:08:31.936Z,4.27
2022-08-08T11:10:41.876Z,4.30
2022-08-08T11:12:48.454Z,4.37
2022-08-08T11:15:06.720Z,3.53
2022-08-08T11:17:14.983Z,4.23
2022-08-08T11:19:18.576Z,4.03
2022-08-08T11:21:22.362Z,3.90
2022-08-08T11:23:37.854Z,3.70
2022-08-08T11:25:52.843Z,3.83
2022-08-08T11:28:01.545Z,4.03
2022-08-08T11:30:19.621Z,3.73
2022-08-08T11:32:29.557Z,3.90
2022-08-08T11:34:46.611Z,4.23
2022-08-08T11:36:59.456Z,4.50
2022-08-08T11:39:02.788Z,3.50
2022-08-08T11:41:05.784Z,3.30
2022-08-08T11:43:08.509Z,4.23
2022-08-08T11:45:18.381Z,3.93
2022-08-08T11:47:21.935Z,4.17
2022-08-08T11:49:42.566Z,4.40
2022-08-08T11:51:50.642Z,4.00
2022-08-08T11:53:59.427Z,3.30
2022-08-08T11:56:05.488Z,3.97
2022-08-08T11:58:14.642Z,3.83
2022-08-08T12:00:19.716Z,3.70
2022-08-08T12:02:32.789Z,3.73
2022-08-08T12:04:37.895Z,3.87
2022-08-08T12:06:43.036Z,3.43
2022-08-08T12:08:48.786Z,3.20
2022-08-08T12:10:52.365Z,3.93
2022-08-08T12:13:02.350Z,3.90
2022-08-08T12:15:07.028Z,4.90
2022-08-08T12:17:13.661Z,4.40
2022-08-08T12:19:31.293Z,3.63
2022-08-08T12:21:59.621Z,3.77
2022-08-08T12:24:04.109Z,3.50
2022-08-08T12:26:10.049Z,3.43
2022-08-08T12:28:20.277Z,3.60
2022-08-08T12:30:33.333Z,4.00
2022-08-08T12:32:44.356Z,3.47
2022-08-08T12:34:48.925Z,4.50
2022-08-08T12:36:51.673Z,4.13
2022-08-08T12:38:55.386Z,4.00
2022-08-08T12:41:16.539Z,3.53
2022-08-08T12:43:32.527Z,3.90
2022-08-08T12:45:58.735Z,4.17
2022-08-08T12:48:09.890Z,3.50
2022-08-08T12:50:20.809Z,4.07
2022-08-08T12:52:32.101Z,3.57
2022-08-08T12:54:37.265Z,3.27
2022-08-08T12:56:41.029Z,3.50
2022-08-08T12:58:48.078Z,3.77
2022-08-08T13:00:51.830Z,3.70
2022-08-08T13:03:00.988Z,3.10
2022-08-08T13:05:25.576Z,3.03
2022-08-08T13:08:03.487Z,2.93
2022-08-08T13:10:04.391Z,2.90
2022-08-08T13:12:27.493Z,3.07
2022-08-08T13:14:38.694Z,2.87
2022-08-08T13:16:55.857Z,3.10
2022-08-08T13:19:07.952Z,2.90
2022-08-08T13:21:16.479Z,3.03
2022-08-08T13:23:36.732Z,2.83
2022-08-08T13:25:42.583Z,2.80
2022-08-08T13:27:47.435Z,3.07
2022-08-08T13:29:52.716Z,3.00
2022-08-08T13:31:55.798Z,3.10
2022-08-08T13:33:59.186Z,2.80
2022-08-08T13:36:10.521Z,2.53
2022-08-08T13:38:14.607Z,2.97
2022-08-08T13:40:27.436Z,3.17
2022-08-08T13:42:30.615Z,2.80
2022-08-08T13:44:33.598Z,3.30
2022-08-08T13:46:41.617Z,3.00
2022-08-08T13:48:45.720Z,3.97
2022-08-08T13:51:33.740Z,3.13
2022-08-08T13:53:36.473Z,2.80
2022-08-08T13:55:39.684Z,2.70
2022-08-08T13:58:08.074Z,3.43
2022-08-08T14:00:10.760Z,3.50
2022-08-08T14:02:15.180Z,2.73
2022-08-08T14:04:24.996Z,3.73
2022-08-08T14:06:32.819Z,3.00
2022-08-08T14:08:46.025Z,3.27
2022-08-08T14:10:48.913Z,3.17
2022-08-08T14:12:52.385Z,3.13
2022-08-08T14:14:55.113Z,3.60
2022-08-08T14:17:00.774Z,3.40
2022-08-08T14:19:10.698Z,3.03
2022-08-08T14:21:20.523Z,3.53
2022-08-08T14:24:03.755Z,3.17
2022-08-08T14:25:53.937Z,3.90
2022-08-08T14:28:08.133Z,3.63
2022-08-08T14:30:18.022Z,3.30
2022-08-08T14:32:29.857Z,3.90
2022-08-08T14:34:37.602Z,2.93
2022-08-08T14:36:41.503Z,3.20
2022-08-08T14:39:01.078Z,3.20
2022-08-08T14:41:12.740Z,3.33
2022-08-08T14:44:01.917Z,3.50
2022-08-08T14:46:02.852Z,3.33
2022-08-08T14:48:06.453Z,3.97
2022-08-08T14:50:21.361Z,3.23
2022-08-08T14:52:41.526Z,3.70
2022-08-08T14:54:48.939Z,4.40
2022-08-08T14:56:53.255Z,3.57
2022-08-08T14:58:56.242Z,3.93
2022-08-08T15:00:59.119Z,4.10
2022-08-08T15:03:15.925Z,3.40
2022-08-08T15:05:22.571Z,4.00
2022-08-08T15:07:53.618Z,3.50
2022-08-08T15:10:02.758Z,3.70
2022-08-08T15:12:08.817Z,3.80
2022-08-08T15:14:14.184Z,3.90
2022-08-08T15:16:17.199Z,3.63
2022-08-08T15:18:23.094Z,3.90
2022-08-08T15:20:32.549Z,4.47
2022-08-08T15:22:35.646Z,3.93
2022-08-08T15:24:38.477Z,4.00
2022-08-08T15:26:41.562Z,3.57
2022-08-08T15:28:45.739Z,3.47
2022-08-08T15:30:53.902Z,3.87
2022-08-08T15:32:56.622Z,3.50
2022-08-08T15:34:59.538Z,4.10
2022-08-08T15:37:03.567Z,3.67
2022-08-08T15:39:07.813Z,3.60
2022-08-08T15:41:11.489Z,3.70
2022-08-08T15:43:34.640Z,4.00
2022-08-08T15:45:40.036Z,3.67
2022-08-08T15:48:04.342Z,3.87
2022-08-08T15:50:16.977Z,3.40
2022-08-08T15:52:23.464Z,3.87
2022-08-08T15:54:38.822Z,3.60
2022-08-08T15:56:43.450Z,3.50
2022-08-08T15:58:48.615Z,3.03
2022-08-08T16:00:53.302Z,3.20
2022-08-08T16:02:57.966Z,3.30
2022-08-08T16:05:01.997Z,3.30
2022-08-08T16:07:04.950Z,2.93
2022-08-08T16:13:05.739Z,3.23
2022-08-08T16:13:15.125Z,3.03
2022-08-08T16:13:53.799Z,3.60
2022-08-08T16:16:09.060Z,3.80
2022-08-08T16:18:15.458Z,3.60
2022-08-08T16:20:18.279Z,3.33
2022-08-08T16:22:28.725Z,3.63
2022-08-08T16:24:33.713Z,3.63
2022-08-08T16:26:38.579Z,3.40
2022-08-08T16:28:45.759Z,4.23
2022-08-08T16:30:49.099Z,3.43
2022-08-08T16:32:53.206Z,3.77
2022-08-08T16:34:56.814Z,3.63
2022-08-08T16:36:59.749Z,3.77
2022-08-08T16:39:17.053Z,3.70
2022-08-08T16:41:25.521Z,3.90
2022-08-08T16:43:42.043Z,3.10
2022-08-08T16:46:42.949Z,3.20
2022-08-08T16:48:18.172Z,3.10
2022-08-08T16:50:21.109Z,3.23
2022-08-08T16:55:02.738Z,3.80
2022-08-08T16:55:04.914Z,3.13
2022-08-08T16:57:23.325Z,4.27
2022-08-08T16:59:52.439Z,4.10
2022-08-08T17:01:55.490Z,4.33
2022-08-08T17:04:03.761Z,3.40
2022-08-08T17:06:06.896Z,3.30
2022-08-08T17:08:29.602Z,9.03
2022-08-08T17:10:32.339Z,4.60
2022-08-08T17:12:36.894Z,3.87
2022-08-08T17:14:39.952Z,3.47
2022-08-08T17:16:42.684Z,3.53
2022-08-08T17:18:54.341Z,3.70
2022-08-08T17:20:58.449Z,3.40
2022-08-08T17:23:17.717Z,3.70
2022-08-08T17:25:28.435Z,3.07
2022-08-08T17:27:47.885Z,3.53
2022-08-08T17:29:56.837Z,3.73
2022-08-08T17:31:59.842Z,3.53
2022-08-08T17:34:53.489Z,3.37
2022-08-08T17:36:31.113Z,3.10
2022-08-08T17:38:34.238Z,3.40
2022-08-08T17:40:37.036Z,3.30
2022-08-08T17:42:40.288Z,3.60
2022-08-08T17:44:44.242Z,3.10
2022-08-08T17:46:49.286Z,3.20
2022-08-08T17:48:54.770Z,3.73
2022-08-08T17:50:57.531Z,3.60
2022-08-08T17:53:01.591Z,3.50
2022-08-08T17:56:04.185Z,3.53
2022-08-08T17:57:35.449Z,3.80
2022-08-08T17:59:45.829Z,3.77
2022-08-08T18:01:54.300Z,3.57
2022-08-08T18:03:57.038Z,3.70
2022-08-08T18:06:00.471Z,3.00
2022-08-08T18:08:06.979Z,3.10
2022-08-08T18:10:13.887Z,3.10
2022-08-08T18:12:16.867Z,3.47
2022-08-08T18:14:22.232Z,2.90
2022-08-08T18:16:26.963Z,3.17
2022-08-08T18:18:39.291Z,3.03
2022-08-08T18:20:59.712Z,3.67
2022-08-08T18:23:05.080Z,3.50
2022-08-08T18:25:16.638Z,3.23
2022-08-08T18:27:19.369Z,3.03
2022-08-08T18:29:27.289Z,3.20
2022-08-08T18:31:33.192Z,2.80
2022-08-08T18:34:11.508Z,2.73
2022-08-08T18:36:02.747Z,2.47
2022-08-08T18:38:17.466Z,2.30
2022-08-08T18:40:35.428Z,2.57
2022-08-08T18:42:38.371Z,2.20
2022-08-08T18:44:55.497Z,2.70
2022-08-08T18:47:00.535Z,2.40
2022-08-08T18:49:03.788Z,2.30
2022-08-08T18:51:33.464Z,2.77
2022-08-08T18:54:03.151Z,1.90
2022-08-08T18:55:57.133Z,2.20
2022-08-08T18:57:59.847Z,2.33
2022-08-08T19:00:02.941Z,2.10
2022-08-08T19:02:14.332Z,1.77
2022-08-08T19:04:29.029Z,1.90
2022-08-08T19:06:32.490Z,2.00
2022-08-08T19:08:35.199Z,1.90
2022-08-08T19:10:41.198Z,2.20
2022-08-08T19:12:49.956Z,2.20
2022-08-08T19:14:56.307Z,2.20
2022-08-08T19:16:59.038Z,2.17
2022-08-08T19:19:03.843Z,2.60
2022-08-08T19:21:29.672Z,1.80
2022-08-08T19:23:35.662Z,2.33
2022-08-08T19:26:20.060Z,1.93
2022-08-08T19:28:02.554Z,2.27
2022-08-08T19:30:24.506Z,1.80
2022-08-08T19:32:29.320Z,2.47
2022-08-08T19:34:38.749Z,2.07
2022-08-08T19:36:45.467Z,2.20
2022-08-08T19:38:48.342Z,2.17
2022-08-08T19:40:56.203Z,2.40
2022-08-08T19:42:59.003Z,2.20
2022-08-08T19:45:05.114Z,1.90
2022-08-08T19:47:10.117Z,1.87
2022-08-08T19:49:15.225Z,2.20
2022-08-08T19:51:25.043Z,1.77
2022-08-08T19:53:52.200Z,2.20
2022-08-08T19:55:56.965Z,2.67
2022-08-08T19:58:00.173Z,2.10
2022-08-08T20:00:11.422Z,2.23
2022-08-08T20:02:28.890Z,2.50
2022-08-08T20:04:31.840Z,2.10
2022-08-08T20:06:34.558Z,1.90
2022-08-08T20:08:38.769Z,2.20
2022-08-08T20:10:44.272Z,2.10
2022-08-08T20:12:59.117Z,2.43
2022-08-08T20:15:14.510Z,2.10
2022-08-08T20:17:36.580Z,2.43
2022-08-08T20:19:42.231Z,2.07
2022-08-08T20:21:46.085Z,2.57
2022-08-08T20:23:48.791Z,2.40
2022-08-08T20:25:55.313Z,2.60
2022-08-08T20:28:05.721Z,2.37
2022-08-08T20:30:35.602Z,2.50
2022-08-08T20:32:35.818Z,2.50
2022-08-08T20:34:38.619Z,2.50
2022-08-08T20:36:50.698Z,2.27
2022-08-08T20:38:53.541Z,2.70
2022-08-08T20:40:56.443Z,2.40
2022-08-08T20:43:01.124Z,2.40
2022-08-08T20:45:04.222Z,2.63
2022-08-08T20:47:22.716Z,2.83
2022-08-08T20:49:32.458Z,2.10
2022-08-08T20:51:43.039Z,2.40
2022-08-08T20:54:00.727Z,2.67
2022-08-08T20:56:06.506Z,2.50
2022-08-08T20:58:13.990Z,2.93
2022-08-08T21:00:26.735Z,2.73
2022-08-08T21:02:30.823Z,2.50
2022-08-08T21:04:35.289Z,2.80
2022-08-08T21:06:52.997Z,2.60
2022-08-08T21:08:56.579Z,2.70
2022-08-08T21:11:00.795Z,2.87
2022-08-08T21:13:05.407Z,2.90
2022-08-08T21:15:16.483Z,2.53
2022-08-08T21:17:36.484Z,3.20
2022-08-08T21:19:45.107Z,2.80
2022-08-08T21:21:55.795Z,2.67
2022-08-08T21:24:04.373Z,2.43
2022-08-08T21:26:12.402Z,2.43
2022-08-08T21:28:15.895Z,2.57
2022-08-08T21:30:21.981Z,3.00
2022-08-08T21:32:25.780Z,2.80
2022-08-08T21:34:30.578Z,2.60
2022-08-08T21:36:33.293Z,2.47
2022-08-08T21:38:36.207Z,2.63
2022-08-08T21:40:38.903Z,2.80
2022-08-08T21:42:58.258Z,3.17
2022-08-08T21:45:44.344Z,2.27
2022-08-08T21:48:20.287Z,3.07
2022-08-08T21:49:47.700Z,3.00
2022-08-08T21:54:31.170Z,3.03
2022-08-08T21:54:33.710Z,2.70
2022-08-08T21:56:43.426Z,2.40
2022-08-08T21:58:54.966Z,2.50
2022-08-08T22:00:58.415Z,2.60
2022-08-08T22:03:07.119Z,3.17
2022-08-08T22:05:11.856Z,2.47
2022-08-08T22:07:17.765Z,2.17
2022-08-08T22:09:26.847Z,3.20
2022-08-08T22:11:51.333Z,2.70
2022-08-08T22:14:02.565Z,3.97
2022-08-08T22:16:06.010Z,3.30
2022-08-08T22:18:12.411Z,3.40
2022-08-08T22:20:23.384Z,2.90
2022-08-08T22:22:29.193Z,3.63
2022-08-08T22:24:33.564Z,3.57
2022-08-08T22:27:01.473Z,3.60
2022-08-08T22:29:13.558Z,2.60
2022-08-08T22:31:24.963Z,3.20
2022-08-08T22:34:12.987Z,2.80
2022-08-08T22:36:04.946Z,3.50
2022-08-08T22:38:17.750Z,3.20
2022-08-08T22:40:20.709Z,3.03
2022-08-08T22:42:27.305Z,3.17
2022-08-08T22:44:34.892Z,3.43
2022-08-08T22:46:39.814Z,3.10
2022-08-08T22:48:45.496Z,2.87
2022-08-08T22:50:48.331Z,3.30
2022-08-08T22:53:22.532Z,3.33
2022-08-08T22:55:16.223Z,3.53
2022-08-08T22:57:18.972Z,3.07
2022-08-08T22:59:21.684Z,2.90
2022-08-08T23:02:02.260Z,3.43
2022-08-08T23:03:53.928Z,3.60
2022-08-08T23:06:00.165Z,3.23
2022-08-08T23:08:04.628Z,3.40
2022-08-08T23:10:08.054Z,3.20
2022-08-08T23:12:27.571Z,3.00
2022-08-08T23:14:33.732Z,3.07
2022-08-08T23:16:43.756Z,3.10
2022-08-08T23:18:47.393Z,2.57
2022-08-08T23:20:54.703Z,3.20
2022-08-08T23:22:57.680Z,3.50
2022-08-08T23:25:01.707Z,3.20
2022-08-08T23:27:04.787Z,3.23
2022-08-08T23:29:10.967Z,3.63
2022-08-08T23:31:13.876Z,2.90
2022-08-08T23:33:19.313Z,3.23
2022-08-08T23:36:06.938Z,3.57
2022-08-08T23:38:03.717Z,3.20
2022-08-08T23:40:09.957Z,3.20
2022-08-08T23:42:13.050Z,3.20
2022-08-08T23:44:15.777Z,3.13
2022-08-08T23:48:59.781Z,3.90
2022-08-08T23:49:03.891Z,3.60
2022-08-08T23:51:03.833Z,3.30
2022-08-08T23:53:06.863Z,3.60
2022-08-08T23:55:22.889Z,3.70
2022-08-08T23:57:38.832Z,3.00
2022-08-08T23:59:42.409Z,2.90
